createdAt,value
2019-01-20T00:00:17.648Z,22.4
2019-01-20T00:01:07.896Z,22
2019-01-20T00:01:57.960Z,21.5
2019-01-20T00:02:48.299Z,21.1
2019-01-20T00:03:37.841Z,20.8
2019-01-20T00:04:27.894Z,20.4
2019-01-20T00:05:17.646Z,20.3
2019-01-20T00:06:07.736Z,20.1
2019-01-20T00:06:58.576Z,19.9
2019-01-20T00:07:48.898Z,19.8
2019-01-20T00:08:37.910Z,19.6
2019-01-20T00:09:27.648Z,19.5
2019-01-20T00:10:19.151Z,19.4
2019-01-20T00:11:08.313Z,19.4
2019-01-20T00:11:59.193Z,19.2
2019-01-20T00:12:49.311Z,19.1
2019-01-20T00:13:39.625Z,18.9
2019-01-20T00:14:29.394Z,18.8
2019-01-20T00:16:09.200Z,18.9
2019-01-20T00:16:59.298Z,19.5
2019-01-20T00:17:48.765Z,20
2019-01-20T00:18:39.407Z,20.3
2019-01-20T00:19:28.904Z,20.7
2019-01-20T00:20:20.679Z,20.9
2019-01-20T00:21:09.617Z,21.2
2019-01-20T00:22:00.210Z,21.3
2019-01-20T00:22:49.720Z,21.5
2019-01-20T00:23:40.020Z,21.7
2019-01-20T00:24:28.715Z,21.8
2019-01-20T00:25:19.538Z,21.9
2019-01-20T00:26:09.647Z,22.1
2019-01-20T00:26:59.947Z,22.2
2019-01-20T00:27:49.762Z,22.3
2019-01-20T00:28:39.775Z,22.4
2019-01-20T00:29:30.450Z,22.3
2019-01-20T00:30:20.458Z,21.8
2019-01-20T00:31:09.934Z,21.3
2019-01-20T00:32:00.077Z,20.9
2019-01-20T00:32:49.877Z,20.6
2019-01-20T00:33:40.724Z,20.4
2019-01-20T00:34:31.159Z,20.1
2019-01-20T00:35:22.767Z,20
2019-01-20T00:36:10.847Z,19.8
2019-01-20T00:37:00.907Z,19.7
2019-01-20T00:37:50.704Z,19.6
2019-01-20T00:38:40.794Z,19.5
2019-01-20T00:39:30.521Z,19.4
2019-01-20T00:40:20.324Z,19.3
2019-01-20T00:41:10.666Z,19.2
2019-01-20T00:42:01.304Z,19
2019-01-20T00:42:50.204Z,18.9
2019-01-20T00:43:40.538Z,18.8
2019-01-20T00:44:29.766Z,19
2019-01-20T00:45:20.136Z,19.6
2019-01-20T00:46:11.002Z,20
2019-01-20T00:47:01.326Z,20.4
2019-01-20T00:47:51.131Z,20.7
2019-01-20T00:48:40.896Z,20.9
2019-01-20T00:50:21.057Z,21.3
2019-01-20T00:51:11.034Z,21.5
2019-01-20T00:52:02.831Z,21.7
2019-01-20T00:52:51.729Z,21.8
2019-01-20T00:53:41.500Z,21.9
2019-01-20T00:54:31.306Z,22.1
2019-01-20T00:55:21.355Z,22.1
2019-01-20T00:56:11.713Z,22.3
2019-01-20T00:57:02.278Z,22.3
2019-01-20T00:57:51.860Z,22.3
2019-01-20T00:58:41.705Z,21.7
2019-01-20T00:59:31.358Z,21.2
2019-01-20T01:00:21.746Z,20.8
2019-01-20T01:01:12.062Z,20.6
2019-01-20T01:02:01.822Z,20.3
2019-01-20T01:02:52.916Z,20.1
2019-01-20T01:03:42.190Z,19.9
2019-01-20T01:04:32.550Z,19.8
2019-01-20T01:05:22.588Z,19.7
2019-01-20T01:06:13.225Z,19.6
2019-01-20T01:07:02.140Z,19.4
2019-01-20T01:07:51.950Z,19.4
2019-01-20T01:08:42.864Z,19.3
2019-01-20T01:09:32.872Z,19.1
2019-01-20T01:10:22.470Z,18.9
2019-01-20T01:11:12.712Z,18.8
2019-01-20T01:12:03.344Z,18.8
2019-01-20T01:12:52.904Z,19.2
2019-01-20T01:13:43.178Z,19.8
2019-01-20T01:14:33.339Z,20.1
2019-01-20T01:15:21.902Z,20.5
2019-01-20T01:16:12.764Z,20.8
2019-01-20T01:17:03.659Z,21
2019-01-20T01:17:53.756Z,21.2
2019-01-20T01:18:42.966Z,21.4
2019-01-20T01:19:32.799Z,21.6
2019-01-20T01:20:23.366Z,21.7
2019-01-20T01:21:13.398Z,21.9
2019-01-20T01:22:02.636Z,21.9
2019-01-20T01:22:53.523Z,22.1
2019-01-20T01:23:43.013Z,21.8
2019-01-20T01:24:33.360Z,21.2
2019-01-20T01:25:23.999Z,20.3
2019-01-20T01:26:13.449Z,19.6
2019-01-20T01:27:02.456Z,19
2019-01-20T01:27:53.866Z,18.3
2019-01-20T01:28:43.426Z,18.1
2019-01-20T01:29:33.706Z,18.2
2019-01-20T01:30:23.746Z,18.8
2019-01-20T01:31:14.104Z,19.4
2019-01-20T01:32:03.591Z,19.9
2019-01-20T01:32:54.538Z,20.4
2019-01-20T01:33:44.533Z,20.7
2019-01-20T01:34:33.773Z,21
2019-01-20T01:35:23.955Z,21.3
2019-01-20T01:36:14.710Z,21.4
2019-01-20T01:37:03.933Z,21.6
2019-01-20T01:37:54.275Z,21.8
2019-01-20T01:38:44.917Z,21.9
2019-01-20T01:39:34.967Z,22
2019-01-20T01:40:23.608Z,22.1
2019-01-20T01:41:14.480Z,22.2
2019-01-20T01:42:05.152Z,22.3
2019-01-20T01:42:54.882Z,21.9
2019-01-20T01:43:44.687Z,21.3
2019-01-20T01:44:35.055Z,20.9
2019-01-20T01:45:25.417Z,20.6
2019-01-20T01:46:14.357Z,20.4
2019-01-20T01:47:05.446Z,20.2
2019-01-20T01:47:55.282Z,20
2019-01-20T01:48:45.906Z,19.9
2019-01-20T01:49:33.672Z,19.7
2019-01-20T01:50:24.950Z,19.6
2019-01-20T01:51:15.255Z,19.5
2019-01-20T01:52:05.991Z,19.4
2019-01-20T01:52:55.102Z,19.3
2019-01-20T01:53:45.481Z,19.2
2019-01-20T01:54:35.760Z,19
2019-01-20T01:55:24.721Z,18.9
2019-01-20T01:56:15.577Z,18.8
2019-01-20T01:57:06.422Z,19.1
2019-01-20T01:57:55.375Z,19.7
2019-01-20T01:58:45.974Z,20.1
2019-01-20T01:59:35.759Z,20.5
2019-01-20T02:00:25.884Z,20.8
2019-01-20T02:01:15.948Z,21
2019-01-20T02:02:06.544Z,21.2
2019-01-20T02:02:56.829Z,21.4
2019-01-20T02:03:46.301Z,21.6
2019-01-20T02:04:36.938Z,21.7
2019-01-20T02:05:25.605Z,21.8
2019-01-20T02:06:16.225Z,21.9
2019-01-20T02:07:06.001Z,22.1
2019-01-20T02:07:56.948Z,22.1
2019-01-20T02:08:47.260Z,22.3
2019-01-20T02:09:37.089Z,22.3
2019-01-20T02:10:26.523Z,22
2019-01-20T02:11:15.808Z,21.4
2019-01-20T02:12:06.111Z,21
2019-01-20T02:12:56.965Z,20.6
2019-01-20T02:13:46.171Z,20.4
2019-01-20T02:14:37.064Z,20.2
2019-01-20T02:15:27.428Z,20
2019-01-20T02:16:16.911Z,19.8
2019-01-20T02:17:07.248Z,19.8
2019-01-20T02:17:57.570Z,19.6
2019-01-20T02:18:47.072Z,19.5
2019-01-20T02:19:37.666Z,19.4
2019-01-20T02:20:27.780Z,19.3
2019-01-20T02:21:17.552Z,19.1
2019-01-20T02:22:07.872Z,18.9
2019-01-20T02:22:57.662Z,18.9
2019-01-20T02:23:47.417Z,18.8
2019-01-20T02:24:37.742Z,19.2
2019-01-20T02:25:27.862Z,19.7
2019-01-20T02:26:18.192Z,20.1
2019-01-20T02:27:08.207Z,20.4
2019-01-20T02:27:59.782Z,20.8
2019-01-20T02:28:48.648Z,21
2019-01-20T02:29:38.107Z,21.2
2019-01-20T02:30:28.691Z,21.4
2019-01-20T02:31:17.411Z,21.5
2019-01-20T02:32:07.779Z,21.7
2019-01-20T02:32:58.450Z,21.8
2019-01-20T02:33:47.397Z,21.9
2019-01-20T02:34:38.267Z,22
2019-01-20T02:35:27.410Z,22.1
2019-01-20T02:36:19.184Z,22.2
2019-01-20T02:37:08.694Z,22.3
2019-01-20T02:37:58.844Z,22
2019-01-20T02:38:48.164Z,21.5
2019-01-20T02:39:38.880Z,21.1
2019-01-20T02:40:29.316Z,20.7
2019-01-20T02:41:18.392Z,20.4
2019-01-20T02:42:08.754Z,20.2
2019-01-20T02:42:59.081Z,20.1
2019-01-20T02:43:48.938Z,19.9
2019-01-20T02:44:39.436Z,19.8
2019-01-20T02:45:29.508Z,19.6
2019-01-20T02:46:19.119Z,19.5
2019-01-20T02:47:09.933Z,19.4
2019-01-20T02:47:59.493Z,19.4
2019-01-20T02:48:48.907Z,19.2
2019-01-20T02:49:39.509Z,19
2019-01-20T02:50:29.424Z,18.9
2019-01-20T02:51:20.248Z,19
2019-01-20T02:52:09.156Z,19.6
2019-01-20T02:52:58.953Z,20
2019-01-20T02:53:50.065Z,20.4
2019-01-20T02:54:39.603Z,20.6
2019-01-20T02:55:29.665Z,20.9
2019-01-20T02:56:19.450Z,21.1
2019-01-20T02:57:10.083Z,21.3
2019-01-20T02:58:02.599Z,21.4
2019-01-20T02:58:49.910Z,21.6
2019-01-20T02:59:39.370Z,21.7
2019-01-20T03:00:30.045Z,21.8
2019-01-20T03:01:19.838Z,21.9
2019-01-20T03:02:10.395Z,22.1
2019-01-20T03:03:01.003Z,22.1
2019-01-20T03:03:50.002Z,22.3
2019-01-20T03:04:40.583Z,22.3
2019-01-20T03:05:29.764Z,22.1
2019-01-20T03:08:45.640Z,20.5
2019-01-20T03:09:35.105Z,20.3
2019-01-20T03:10:25.459Z,20.1
2019-01-20T03:11:15.752Z,19.9
2019-01-20T03:12:12.802Z,19.8
2019-01-20T03:12:55.277Z,19.6
2019-01-20T03:13:45.116Z,19.5
2019-01-20T03:14:35.704Z,19.5
2019-01-20T03:15:25.468Z,19.4
2019-01-20T03:16:15.585Z,19.2
2019-01-20T03:17:05.161Z,19
2019-01-20T03:17:56.210Z,18.9
2019-01-20T03:18:45.963Z,18.8
2019-01-20T03:19:36.302Z,19.1
2019-01-20T03:20:26.061Z,19.7
2019-01-20T03:21:15.616Z,20.1
2019-01-20T03:22:05.911Z,20.4
2019-01-20T03:22:55.496Z,20.7
2019-01-20T03:23:45.824Z,20.9
2019-01-20T03:25:26.168Z,21.3
2019-01-20T03:26:16.906Z,21.4
2019-01-20T03:27:06.281Z,21.6
2019-01-20T03:27:56.623Z,21.7
2019-01-20T03:28:46.365Z,21.3
2019-01-20T03:29:36.520Z,20.6
2019-01-20T03:30:26.879Z,19.8
2019-01-20T03:31:16.461Z,19.3
2019-01-20T03:32:56.723Z,18
2019-01-20T03:33:47.320Z,17.6
2019-01-20T03:34:37.388Z,17.6
2019-01-20T03:35:27.232Z,17.9
2019-01-20T03:36:16.940Z,18.6
2019-01-20T03:37:07.516Z,19.2
2019-01-20T03:37:57.595Z,19.8
2019-01-20T03:38:47.297Z,20.2
2019-01-20T03:39:37.468Z,20.4
2019-01-20T03:40:27.704Z,20.8
2019-01-20T03:41:17.820Z,21
2019-01-20T03:42:16.040Z,21.2
2019-01-20T03:42:57.602Z,21.4
2019-01-20T03:43:47.965Z,21.6
2019-01-20T03:44:37.748Z,21.7
2019-01-20T03:45:27.381Z,21.8
2019-01-20T03:46:17.865Z,22
2019-01-20T03:47:07.739Z,22.1
2019-01-20T03:47:57.208Z,22.1
2019-01-20T03:48:48.031Z,22.3
2019-01-20T03:49:38.346Z,22.3
2019-01-20T03:50:28.147Z,21.8
2019-01-20T03:51:17.372Z,21.3
2019-01-20T03:52:08.250Z,20.9
2019-01-20T03:52:58.270Z,20.6
2019-01-20T03:53:48.396Z,20.3
2019-01-20T03:54:38.165Z,20.1
2019-01-20T03:55:28.004Z,19.9
2019-01-20T03:56:17.955Z,19.8
2019-01-20T03:57:07.482Z,19.6
2019-01-20T03:57:58.116Z,19.5
2019-01-20T03:58:48.959Z,19.4
2019-01-20T03:59:39.009Z,19.4
2019-01-20T04:00:28.991Z,19.2
2019-01-20T04:01:18.846Z,19
2019-01-20T04:02:09.204Z,18.9
2019-01-20T04:02:57.723Z,18.8
2019-01-20T04:03:48.820Z,19.1
2019-01-20T04:04:38.275Z,19.6
2019-01-20T04:05:29.012Z,20.1
2019-01-20T04:06:18.693Z,20.4
2019-01-20T04:07:09.524Z,20.7
2019-01-20T04:08:01.378Z,20.9
2019-01-20T04:08:48.838Z,21.2
2019-01-20T04:09:39.500Z,21.3
2019-01-20T04:10:29.308Z,21.5
2019-01-20T04:11:19.025Z,21.6
2019-01-20T04:12:09.894Z,21.8
2019-01-20T04:12:59.765Z,21.9
2019-01-20T04:13:49.534Z,22
2019-01-20T04:14:39.215Z,22.1
2019-01-20T04:15:29.870Z,22.2
2019-01-20T04:16:19.868Z,22.3
2019-01-20T04:17:10.247Z,22.4
2019-01-20T04:18:00.041Z,21.9
2019-01-20T04:18:49.792Z,21.4
2019-01-20T04:19:39.922Z,20.9
2019-01-20T04:20:30.221Z,20.6
2019-01-20T04:21:20.015Z,20.4
2019-01-20T04:22:10.525Z,20.1
2019-01-20T04:22:59.564Z,19.9
2019-01-20T04:23:52.356Z,19.8
2019-01-20T04:24:40.725Z,19.6
2019-01-20T04:25:31.047Z,19.6
2019-01-20T04:26:20.569Z,19.4
2019-01-20T04:27:10.347Z,19.4
2019-01-20T04:28:00.970Z,19.3
2019-01-20T04:28:51.147Z,19.1
2019-01-20T04:29:40.544Z,18.9
2019-01-20T04:30:31.366Z,18.8
2019-01-20T04:31:20.678Z,19.1
2019-01-20T04:32:10.212Z,19.7
2019-01-20T04:33:01.073Z,20.1
2019-01-20T04:33:51.390Z,20.4
2019-01-20T04:34:40.869Z,20.6
2019-01-20T04:35:31.006Z,20.9
2019-01-20T04:37:11.634Z,21.3
2019-01-20T04:38:01.129Z,21.4
2019-01-20T04:38:51.453Z,21.6
2019-01-20T04:39:41.524Z,21.8
2019-01-20T04:40:31.061Z,21.9
2019-01-20T04:41:21.383Z,21.9
2019-01-20T04:42:11.829Z,22.1
2019-01-20T04:43:01.781Z,22.2
2019-01-20T04:43:51.533Z,22.3
2019-01-20T04:44:41.563Z,22.3
2019-01-20T04:45:31.879Z,22
2019-01-20T04:46:21.756Z,21.4
2019-01-20T04:47:12.009Z,21
2019-01-20T04:48:01.763Z,20.7
2019-01-20T04:48:51.825Z,20.4
2019-01-20T04:49:41.592Z,20.2
2019-01-20T04:50:32.618Z,20
2019-01-20T04:51:22.343Z,19.8
2019-01-20T04:52:12.071Z,19.7
2019-01-20T04:53:01.853Z,19.6
2019-01-20T04:53:51.952Z,19.4
2019-01-20T04:54:42.552Z,19.4
2019-01-20T04:55:32.573Z,19.3
2019-01-20T04:56:22.665Z,19.2
2019-01-20T04:57:12.522Z,19
2019-01-20T04:58:02.185Z,18.9
2019-01-20T04:58:52.528Z,19.1
2019-01-20T04:59:42.310Z,19.6
2019-01-20T05:00:32.957Z,20
2019-01-20T05:01:23.001Z,20.4
2019-01-20T05:02:13.110Z,20.6
2019-01-20T05:03:02.558Z,20.9
2019-01-20T05:03:52.092Z,21.1
2019-01-20T05:04:42.912Z,21.3
2019-01-20T05:05:33.266Z,21.4
2019-01-20T05:06:23.440Z,21.6
2019-01-20T05:07:13.384Z,21.7
2019-01-20T05:08:03.434Z,21.8
2019-01-20T05:08:52.923Z,21.9
2019-01-20T05:09:43.573Z,22
2019-01-20T05:10:33.682Z,22.1
2019-01-20T05:11:23.692Z,22.2
2019-01-20T05:12:13.187Z,22.3
2019-01-20T05:13:04.073Z,22.2
2019-01-20T05:13:53.560Z,21.6
2019-01-20T05:15:33.954Z,20.8
2019-01-20T05:16:24.012Z,20.5
2019-01-20T05:17:14.331Z,20.3
2019-01-20T05:18:04.196Z,20.1
2019-01-20T05:18:54.578Z,19.9
2019-01-20T05:19:43.894Z,19.8
2019-01-20T05:20:34.327Z,19.6
2019-01-20T05:21:24.363Z,19.5
2019-01-20T05:22:14.114Z,19.4
2019-01-20T05:23:04.814Z,19.3
2019-01-20T05:23:53.928Z,19.1
2019-01-20T05:24:44.541Z,18.9
2019-01-20T05:25:34.911Z,18.8
2019-01-20T05:26:24.789Z,19
2019-01-20T05:27:14.961Z,19.6
2019-01-20T05:28:04.792Z,20
2019-01-20T05:28:54.303Z,20.3
2019-01-20T05:29:44.908Z,20.6
2019-01-20T05:30:35.005Z,20.9
2019-01-20T05:31:25.052Z,21.1
2019-01-20T05:32:15.128Z,21.3
2019-01-20T05:33:05.025Z,21.2
2019-01-20T05:33:54.875Z,20.7
2019-01-20T05:34:45.564Z,19.9
2019-01-20T05:35:35.322Z,19.3
2019-01-20T05:36:24.535Z,18.8
2019-01-20T05:37:15.196Z,18.3
2019-01-20T05:38:05.552Z,17.6
2019-01-20T05:38:54.718Z,17.2
2019-01-20T05:39:45.022Z,17.2
2019-01-20T05:40:35.742Z,17.6
2019-01-20T05:41:25.536Z,18.3
2019-01-20T05:42:15.598Z,18.9
2019-01-20T05:43:05.082Z,19.4
2019-01-20T05:43:55.374Z,19.9
2019-01-20T05:44:45.463Z,20.2
2019-01-20T05:45:36.000Z,20.5
2019-01-20T05:46:25.790Z,20.8
2019-01-20T05:47:15.804Z,20.9
2019-01-20T05:48:55.957Z,21.3
2019-01-20T05:49:46.709Z,21.5
2019-01-20T05:50:36.674Z,21.6
2019-01-20T05:51:26.646Z,21.8
2019-01-20T05:52:16.451Z,21.9
2019-01-20T05:53:06.489Z,22
2019-01-20T05:53:56.789Z,22.1
2019-01-20T05:54:46.341Z,22.2
2019-01-20T05:55:36.943Z,22.3
2019-01-20T05:56:26.488Z,22.1
2019-01-20T05:57:16.823Z,21.6
2019-01-20T05:58:06.688Z,21.1
2019-01-20T05:58:56.593Z,20.7
2019-01-20T05:59:47.256Z,20.4
2019-01-20T06:00:37.053Z,20.1
2019-01-20T06:01:28.839Z,19.9
2019-01-20T06:02:17.446Z,19.7
2019-01-20T06:03:07.193Z,19.6
2019-01-20T06:03:57.256Z,19.4
2019-01-20T06:06:44.243Z,19.1
2019-01-20T06:07:34.878Z,18.9
2019-01-20T06:08:24.929Z,18.8
2019-01-20T06:10:05.038Z,19.1
2019-01-20T06:10:55.038Z,19.6
2019-01-20T06:11:44.862Z,20
2019-01-20T06:12:34.965Z,20.3
2019-01-20T06:13:24.989Z,20.6
2019-01-20T06:14:14.448Z,20.8
2019-01-20T06:15:05.163Z,21
2019-01-20T06:16:44.664Z,21.3
2019-01-20T06:17:35.568Z,21.4
2019-01-20T06:18:25.908Z,21.6
2019-01-20T06:19:15.730Z,21.7
2019-01-20T06:20:05.112Z,21.8
2019-01-20T06:20:55.442Z,21.9
2019-01-20T06:21:44.699Z,22
2019-01-20T06:22:37.132Z,22.1
2019-01-20T06:23:26.352Z,22.2
2019-01-20T06:24:15.687Z,22
2019-01-20T06:25:05.588Z,21.4
2019-01-20T06:25:55.546Z,21
2019-01-20T06:26:46.109Z,20.6
2019-01-20T06:27:35.898Z,20.3
2019-01-20T06:28:26.794Z,19.9
2019-01-20T06:29:15.781Z,19.6
2019-01-20T06:30:05.577Z,19.4
2019-01-20T06:30:56.140Z,19.3
2019-01-20T06:31:46.531Z,19.3
2019-01-20T06:32:51.239Z,19.1
2019-01-20T06:33:27.000Z,19
2019-01-20T06:34:16.395Z,19
2019-01-20T06:35:06.248Z,18.9
2019-01-20T06:36:46.605Z,18.9
2019-01-20T06:37:36.593Z,19.4
2019-01-20T06:38:26.368Z,19.8
2019-01-20T06:39:17.601Z,20.2
2019-01-20T06:40:06.840Z,20.5
2019-01-20T06:40:58.432Z,20.7
2019-01-20T06:41:47.694Z,20.9
2019-01-20T06:43:27.276Z,21.3
2019-01-20T06:44:16.773Z,21.4
2019-01-20T06:45:07.183Z,21.6
2019-01-20T06:45:56.888Z,21.8
2019-01-20T06:46:47.751Z,21.9
2019-01-20T06:47:36.983Z,22
2019-01-20T06:48:28.130Z,22.1
2019-01-20T06:49:17.925Z,22.2
2019-01-20T06:50:06.650Z,22.1
2019-01-20T06:50:57.506Z,21.4
2019-01-20T06:51:47.600Z,21
2019-01-20T06:52:37.870Z,20.6
2019-01-20T06:53:27.942Z,20.3
2019-01-20T06:54:18.042Z,20.1
2019-01-20T06:55:07.515Z,19.9
2019-01-20T06:55:58.420Z,19.8
2019-01-20T06:56:48.180Z,19.6
2019-01-20T06:57:38.609Z,19.4
2019-01-20T06:58:28.062Z,19.4
2019-01-20T06:59:18.148Z,19.3
2019-01-20T07:00:08.495Z,19.1
2019-01-20T07:00:57.449Z,19
2019-01-20T07:01:48.527Z,18.8
2019-01-20T07:02:38.590Z,18.8
2019-01-20T07:03:28.074Z,19.3
2019-01-20T07:04:18.504Z,19.8
2019-01-20T07:07:35.149Z,21
2019-01-20T07:09:15.144Z,21.4
2019-01-20T07:10:04.777Z,21.4
2019-01-20T07:10:55.441Z,21.6
2019-01-20T07:11:44.196Z,21.8
2019-01-20T07:12:35.269Z,21.9
2019-01-20T07:13:25.624Z,22
2019-01-20T07:14:15.179Z,22.1
2019-01-20T07:15:06.118Z,22.3
2019-01-20T07:15:55.442Z,22.4
2019-01-20T07:16:45.629Z,22.1
2019-01-20T07:17:36.151Z,21.6
2019-01-20T07:18:40.381Z,21.1
2019-01-20T07:19:30.411Z,20.6
2019-01-20T07:20:06.150Z,20.3
2019-01-20T07:20:55.468Z,20.1
2019-01-20T07:21:46.231Z,19.9
2019-01-20T07:22:35.934Z,19.7
2019-01-20T07:23:26.238Z,19.6
2019-01-20T07:24:18.650Z,19.4
2019-01-20T07:25:21.093Z,19.3
2019-01-20T07:25:56.910Z,19.1
2019-01-20T07:26:46.130Z,19.1
2019-01-20T07:28:05.711Z,18.9
2019-01-20T07:29:45.793Z,18.6
2019-01-20T07:30:05.976Z,19.1
2019-01-20T07:30:56.541Z,19.3
2019-01-20T07:32:01.136Z,19.8
2019-01-20T07:32:37.555Z,20.3
2019-01-20T07:33:26.841Z,20.4
2019-01-20T07:34:16.842Z,20.7
2019-01-20T07:35:05.904Z,20.9
2019-01-20T07:37:36.250Z,20.6
2019-01-20T07:38:26.397Z,19.9
2019-01-20T07:39:16.672Z,19.3
2019-01-20T07:40:07.654Z,18.8
2019-01-20T07:40:56.550Z,18.1
2019-01-20T07:41:47.467Z,17.4
2019-01-20T07:42:37.714Z,17.3
2019-01-20T07:43:27.464Z,17.3
2019-01-20T07:44:17.014Z,17.8
2019-01-20T07:45:07.072Z,18.4
2019-01-20T07:45:57.372Z,18.9
2019-01-20T07:46:46.952Z,19.5
2019-01-20T07:47:37.779Z,19.9
2019-01-20T07:48:27.376Z,20.3
2019-01-20T07:49:16.279Z,20.6
2019-01-20T07:50:21.774Z,20.8
2019-01-20T07:50:57.022Z,21.1
2019-01-20T07:51:47.059Z,21.2
2019-01-20T07:52:38.054Z,21.4
2019-01-20T07:53:28.183Z,21.6
2019-01-20T07:54:17.196Z,21.7
2019-01-20T07:55:07.526Z,21.9
2019-01-20T07:55:59.935Z,22
2019-01-20T07:56:48.403Z,22.1
2019-01-20T07:57:38.183Z,22.3
2019-01-20T07:58:28.258Z,22.3
2019-01-20T07:59:18.293Z,22.2
2019-01-20T08:00:07.563Z,21.6
2019-01-20T08:00:59.916Z,21.1
2019-01-20T08:01:48.476Z,20.6
2019-01-20T08:02:38.571Z,20.3
2019-01-20T08:03:28.300Z,20.1
2019-01-20T08:04:18.373Z,19.9
2019-01-20T08:05:08.826Z,19.7
2019-01-20T08:05:58.480Z,19.5
2019-01-20T08:06:48.598Z,19.4
2019-01-20T08:07:38.035Z,19.3
2019-01-20T08:08:28.671Z,19.2
2019-01-20T08:09:19.295Z,19.1
2019-01-20T08:10:09.621Z,18.9
2019-01-20T08:10:58.885Z,18.8
2019-01-20T08:12:38.949Z,19
2019-01-20T08:13:32.470Z,19.5
2019-01-20T08:14:19.399Z,19.9
2019-01-20T08:15:07.502Z,20.3
2019-01-20T08:15:58.947Z,20.6
2019-01-20T08:16:49.379Z,20.8
2019-01-20T08:17:39.002Z,21.1
2019-01-20T08:18:29.665Z,21.3
2019-01-20T08:19:18.562Z,21.4
2019-01-20T08:20:09.469Z,21.6
2019-01-20T08:20:59.504Z,21.8
2019-01-20T08:21:49.879Z,21.9
2019-01-20T08:22:40.454Z,22
2019-01-20T08:23:29.689Z,22.1
2019-01-20T08:24:19.864Z,22.3
2019-01-20T08:25:09.871Z,22.3
2019-01-20T08:26:01.449Z,22.1
2019-01-20T08:26:51.874Z,21.4
2019-01-20T08:27:39.803Z,20.9
2019-01-20T08:28:29.822Z,20.6
2019-01-20T08:29:21.458Z,20.3
2019-01-20T08:30:10.771Z,20
2019-01-20T08:31:00.814Z,19.9
2019-01-20T08:31:50.553Z,19.7
2019-01-20T08:32:40.761Z,19.5
2019-01-20T08:33:30.356Z,19.4
2019-01-20T08:34:20.218Z,19.3
2019-01-20T08:35:24.866Z,19.1
2019-01-20T08:36:00.093Z,19.1
2019-01-20T08:36:51.006Z,19
2019-01-20T08:37:42.513Z,18.8
2019-01-20T08:39:21.071Z,18.8
2019-01-20T08:40:09.728Z,19.4
2019-01-20T08:41:00.609Z,19.8
2019-01-20T08:41:51.903Z,20.1
2019-01-20T08:42:42.703Z,20.5
2019-01-20T08:43:39.448Z,20.8
2019-01-20T08:44:21.378Z,21
2019-01-20T08:45:25.890Z,21.2
2019-01-20T08:46:01.265Z,21.4
2019-01-20T08:46:51.020Z,21.6
2019-01-20T08:47:42.758Z,21.7
2019-01-20T08:48:32.381Z,21.9
2019-01-20T08:49:21.811Z,22
2019-01-20T08:50:11.846Z,22.1
2019-01-20T08:51:02.027Z,22.2
2019-01-20T08:51:51.867Z,22.3
2019-01-20T08:52:41.730Z,22.3
2019-01-20T08:53:33.255Z,21.7
2019-01-20T08:54:21.812Z,21.2
2019-01-20T08:55:11.895Z,20.8
2019-01-20T08:56:03.552Z,20.4
2019-01-20T08:56:52.727Z,20.2
2019-01-20T08:57:42.582Z,19.9
2019-01-20T08:58:32.182Z,19.8
2019-01-20T08:59:22.424Z,19.6
2019-01-20T09:00:26.852Z,19.5
2019-01-20T09:01:01.969Z,19.4
2019-01-20T09:01:52.006Z,19.4
2019-01-20T09:02:42.427Z,19.3
2019-01-20T09:03:32.209Z,19.2
2019-01-20T09:04:22.834Z,19
2019-01-20T09:05:12.289Z,18.8
2019-01-20T09:06:02.951Z,18.9
2019-01-20T09:06:52.394Z,19.4
2019-01-20T09:07:43.034Z,19.8
2019-01-20T09:08:32.584Z,20.1
2019-01-20T09:09:22.595Z,20.3
2019-01-20T09:10:12.349Z,20.5
2019-01-20T09:11:03.264Z,20.6
2019-01-20T09:11:53.644Z,20.8
2019-01-20T09:12:42.908Z,20.9
2019-01-20T09:13:47.883Z,21.1
2019-01-20T09:14:23.568Z,21.3
2019-01-20T09:15:13.091Z,21.4
2019-01-20T09:16:03.093Z,21.5
2019-01-20T09:16:53.103Z,21.6
2019-01-20T09:17:43.434Z,21.8
2019-01-20T09:18:48.455Z,21.9
2019-01-20T09:19:23.023Z,21.4
2019-01-20T09:20:14.685Z,21.1
2019-01-20T09:21:03.418Z,20.5
2019-01-20T09:21:54.362Z,20.2
2019-01-20T09:22:44.065Z,19.9
2019-01-20T09:23:34.460Z,19.6
2019-01-20T09:24:24.770Z,19.4
2019-01-20T09:25:13.940Z,19.3
2019-01-20T09:26:04.831Z,19.1
2019-01-20T09:26:53.269Z,18.9
2019-01-20T09:27:44.462Z,18.8
2019-01-20T09:29:24.810Z,18.6
2019-01-20T09:30:14.315Z,18.5
2019-01-20T09:31:03.782Z,18.5
2019-01-20T09:31:54.672Z,19.1
2019-01-20T09:32:45.075Z,19.6
2019-01-20T09:33:35.322Z,19.9
2019-01-20T09:34:24.342Z,20.3
2019-01-20T09:35:15.282Z,20.5
2019-01-20T09:36:04.986Z,20.8
2019-01-20T09:36:55.612Z,20.9
2019-01-20T09:37:44.869Z,21
2019-01-20T09:39:24.977Z,21.3
2019-01-20T09:40:15.553Z,21.4
2019-01-20T09:41:07.223Z,21.4
2019-01-20T09:41:55.147Z,21.6
2019-01-20T09:42:46.483Z,21.6
2019-01-20T09:43:35.509Z,21.6
2019-01-20T09:44:25.877Z,21
2019-01-20T09:45:15.394Z,20.5
2019-01-20T09:46:05.051Z,20.1
2019-01-20T09:46:55.117Z,19.8
2019-01-20T09:47:46.753Z,19.5
2019-01-20T09:48:36.327Z,19.2
2019-01-20T09:49:25.057Z,19
2019-01-20T09:50:16.371Z,18.8
2019-01-20T09:51:05.675Z,18.6
2019-01-20T09:51:55.989Z,18.4
2019-01-20T09:52:46.312Z,18.4
2019-01-20T09:53:35.907Z,18.3
2019-01-20T09:54:26.458Z,18.3
2019-01-20T09:55:15.733Z,18.2
2019-01-20T09:56:55.778Z,19.3
2019-01-20T09:57:46.443Z,19.8
2019-01-20T09:58:35.426Z,20.3
2019-01-20T09:59:25.487Z,20.5
2019-01-20T10:00:16.023Z,20.8
2019-01-20T10:01:05.393Z,21
2019-01-20T10:01:56.108Z,21.2
2019-01-20T10:02:46.508Z,21.3
2019-01-20T10:03:35.710Z,21.6
2019-01-20T10:04:26.640Z,21.8
2019-01-20T10:05:18.427Z,21.9
2019-01-20T10:07:45.188Z,22.4
2019-01-20T10:08:35.260Z,21.8
2019-01-20T10:09:25.015Z,21.3
2019-01-20T10:10:15.387Z,20.9
2019-01-20T10:11:04.660Z,20.5
2019-01-20T10:11:55.469Z,20.2
2019-01-20T10:12:45.223Z,19.9
2019-01-20T10:13:35.312Z,19.7
2019-01-20T10:14:25.390Z,19.6
2019-01-20T10:15:15.766Z,19.4
2019-01-20T10:16:05.506Z,19.3
2019-01-20T10:16:57.397Z,19.1
2019-01-20T10:17:45.930Z,19.1
2019-01-20T10:18:35.390Z,19
2019-01-20T10:19:25.717Z,18.9
2019-01-20T10:20:15.722Z,18.9
2019-01-20T10:21:06.197Z,19.4
2019-01-20T10:21:56.187Z,19.9
2019-01-20T10:22:45.694Z,20.2
2019-01-20T10:23:36.240Z,20.6
2019-01-20T10:24:26.047Z,20.8
2019-01-20T10:25:23.712Z,21
2019-01-20T10:26:06.151Z,21.3
2019-01-20T10:26:55.729Z,21.4
2019-01-20T10:27:46.107Z,21.6
2019-01-20T10:28:36.111Z,21.7
2019-01-20T10:29:26.169Z,21.8
2019-01-20T10:30:15.974Z,21.9
2019-01-20T10:31:07.994Z,22.1
2019-01-20T10:31:56.294Z,22.2
2019-01-20T10:32:51.073Z,22.1
2019-01-20T10:33:36.211Z,21.4
2019-01-20T10:34:26.156Z,21
2019-01-20T10:35:17.033Z,20.7
2019-01-20T10:36:07.113Z,20.4
2019-01-20T10:36:55.850Z,20.1
2019-01-20T10:37:46.919Z,19.9
2019-01-20T10:38:41.258Z,19.7
2019-01-20T10:39:27.115Z,19.5
2019-01-20T10:40:17.466Z,19.4
2019-01-20T10:41:07.177Z,19.3
2019-01-20T10:41:58.633Z,19.1
2019-01-20T10:42:47.306Z,19.1
2019-01-20T10:43:37.628Z,18.9
2019-01-20T10:44:27.727Z,18.8
2019-01-20T10:45:17.485Z,19
2019-01-20T10:46:07.323Z,19.6
2019-01-20T10:46:57.082Z,19.9
2019-01-20T10:47:47.165Z,20.1
2019-01-20T10:48:37.505Z,20.3
2019-01-20T10:49:26.720Z,20.5
2019-01-20T10:50:17.599Z,20.6
2019-01-20T10:51:07.900Z,20.8
2019-01-20T10:51:57.340Z,20.9
2019-01-20T10:53:38.027Z,21.3
2019-01-20T10:54:28.125Z,21.5
2019-01-20T10:55:17.942Z,21.6
2019-01-20T10:56:07.659Z,21.8
2019-01-20T10:56:57.480Z,21.9
2019-01-20T10:57:47.840Z,21.8
2019-01-20T10:58:37.624Z,21.3
2019-01-20T10:59:28.424Z,20.8
2019-01-20T11:00:17.437Z,20.4
2019-01-20T11:01:08.319Z,20.1
2019-01-20T11:01:58.894Z,19.9
2019-01-20T11:02:48.462Z,19.7
2019-01-20T11:03:37.954Z,19.5
2019-01-20T11:04:28.529Z,19.4
2019-01-20T11:05:32.534Z,19.3
2019-01-20T11:06:08.704Z,19.1
2019-01-20T11:06:57.896Z,19.1
2019-01-20T11:07:48.439Z,19
2019-01-20T11:08:39.324Z,18.9
2019-01-20T11:09:29.392Z,18.9
2019-01-20T11:10:18.719Z,18.9
2019-01-20T11:11:08.958Z,19.4
2019-01-20T11:11:59.599Z,19.9
2019-01-20T11:12:50.053Z,20.3
2019-01-20T11:13:39.108Z,20.6
2019-01-20T11:14:29.719Z,20.8
2019-01-20T11:15:19.553Z,21.1
2019-01-20T11:16:10.616Z,21.3
2019-01-20T11:16:59.059Z,21.4
2019-01-20T11:17:49.471Z,21.6
2019-01-20T11:18:39.712Z,21.8
2019-01-20T11:19:29.600Z,21.9
2019-01-20T11:20:19.365Z,22.1
2019-01-20T11:21:09.880Z,22.1
2019-01-20T11:21:59.953Z,22.3
2019-01-20T11:22:50.000Z,21.8
2019-01-20T11:23:40.355Z,21.2
2019-01-20T11:24:30.406Z,20.8
2019-01-20T11:25:20.510Z,20.5
2019-01-20T11:26:10.570Z,20.2
2019-01-20T11:26:59.450Z,19.9
2019-01-20T11:27:50.621Z,19.8
2019-01-20T11:28:39.610Z,19.7
2019-01-20T11:29:30.783Z,19.6
2019-01-20T11:30:20.545Z,19.4
2019-01-20T11:31:10.030Z,19.3
2019-01-20T11:32:00.633Z,19.1
2019-01-20T11:32:51.410Z,19.1
2019-01-20T11:33:40.480Z,18.9
2019-01-20T11:34:30.585Z,18.9
2019-01-20T11:35:20.618Z,18.8